Time;durP1;ratioP1;P1;durP2;ratioP2;P2;SDS_P1;SDS_P2;PMS_P1;PMS_P2;Temp;Humidity;BMP_temperature;BMP_pressure;BME280_temperature;BME280_humidity;BME280_pressure;Samples;Min_cycle;Max_cycle;Signal;HPM_P1;HPM_P2
2021/05/12 00:00:17;;;;;;;16.65;13.77;;;;;;;;;;2070480;28;20476;-82
2021/05/12 00:01:18;;;;;;;21.00;16.95;;;;;;;;;;2071482;28;20030;-81
2021/05/12 00:02:20;;;;;;;18.27;16.33;;;;;;;;;;2072230;28;20033;-81
2021/05/12 00:03:21;;;;;;;18.90;16.98;;;;;;;;;;2073952;28;20084;-81
2021/05/12 00:04:22;;;;;;;19.77;17.50;;;;;;;;;;2069347;28;20038;-81
2021/05/12 00:05:24;;;;;;;19.40;17.33;;;;;;;;;;2066473;28;20092;-81
2021/05/12 00:06:26;;;;;;;18.55;16.70;;;;;;;;;;2069105;28;20108;-81
2021/05/12 00:07:27;;;;;;;18.65;16.65;;;;;;;;;;2069295;28;20030;-81
2021/05/12 00:08:28;;;;;;;18.70;16.50;;;;;;;;;;2065383;28;21081;-82
2021/05/12 00:09:29;;;;;;;18.25;16.35;;;;;;;;;;2071708;28;20043;-81
2021/05/12 00:10:30;;;;;;;18.98;16.67;;;;;;;;;;2074828;28;20068;-81
2021/05/12 00:11:31;;;;;;;17.02;15.43;;;;;;;;;;2063471;28;20121;-81
2021/05/12 00:12:32;;;;;;;21.60;15.68;;;;;;;;;;2075457;28;20034;-81
2021/05/12 00:13:33;;;;;;;;;;;;;;;;;;2077037;28;20089;-80
2021/05/12 00:14:36;;;;;;;15.77;14.20;;;;;;;;;;2075225;28;19968;-81
2021/05/12 00:15:37;;;;;;;17.95;16.08;;;;;;;;;;2075584;28;20060;-81
2021/05/12 00:16:39;;;;;;;17.90;16.10;;;;;;;;;;2068818;28;20116;-81
2021/05/12 00:17:46;;;;;;;16.88;15.27;;;;;;;;;;2069713;28;20061;-81
2021/05/12 00:18:48;;;;;;;16.98;15.27;;;;;;;;;;2073623;28;20040;-81
2021/05/12 00:19:57;;;;;;;17.42;15.63;;;;;;;;;;2072989;28;20038;-81
2021/05/12 00:20:58;;;;;;;16.88;15.07;;;;;;;;;;2072591;28;20048;-81
2021/05/12 00:23:14;;;;;;;17.60;14.95;;;;;;;;;;2061998;28;20089;-82
2021/05/12 00:24:15;;;;;;;16.50;14.80;;;;;;;;;;2068480;28;20045;-82
2021/05/12 00:25:16;;;;;;;17.83;15.50;;;;;;;;;;2055893;28;20092;-80
2021/05/12 00:26:17;;;;;;;18.35;16.55;;;;;;;;;;2061715;28;20038;-82
2021/05/12 00:27:18;;;;;;;18.40;16.50;;;;;;;;;;2068721;28;20100;-82
2021/05/12 00:28:20;;;;;;;18.88;16.98;;;;;;;;;;2067544;28;20094;-82
2021/05/12 00:29:21;;;;;;;19.25;17.25;;;;;;;;;;2069002;28;20111;-81
2021/05/12 00:30:22;;;;;;;19.23;17.42;;;;;;;;;;2064858;28;20037;-81
2021/05/12 00:31:23;;;;;;;;;;;;;;;;;;2060664;28;20030;-80
2021/05/12 00:32:24;;;;;;;18.90;16.27;;;;;;;;;;2060540;28;20408;-81
2021/05/12 00:33:25;;;;;;;19.33;17.25;;;;;;;;;;2066111;28;20064;-81
2021/05/12 00:34:26;;;;;;;19.83;16.98;;;;;;;;;;2071020;28;20483;-81
2021/05/12 00:35:27;;;;;;;21.23;18.98;;;;;;;;;;2067760;28;20025;-80
2021/05/12 00:36:29;;;;;;;20.42;18.00;;;;;;;;;;2070593;28;20037;-80
2021/05/12 00:37:30;;;;;;;;;;;;;;;;;;2074186;28;20075;-81
2021/05/12 00:38:31;;;;;;;18.98;17.05;;;;;;;;;;2070628;28;19940;-81
2021/05/12 00:39:32;;;;;;;19.20;17.08;;;;;;;;;;2060067;28;20057;-81
2021/05/12 00:40:33;;;;;;;20.88;18.63;;;;;;;;;;2068241;28;20034;-81
2021/05/12 00:41:38;;;;;;;24.35;20.40;;;;;;;;;;2072699;28;20037;-80
2021/05/12 00:42:39;;;;;;;20.50;18.40;;;;;;;;;;2059956;28;20713;-80
2021/05/12 00:43:40;;;;;;;;;;;;;;;;;;2067191;28;20656;-81
2021/05/12 00:44:41;;;;;;;20.38;18.17;;;;;;;;;;2067863;28;19924;-81
2021/05/12 00:45:42;;;;;;;20.58;17.75;;;;;;;;;;2070201;28;20037;-81
2021/05/12 00:46:44;;;;;;;20.88;18.08;;;;;;;;;;2072987;28;20060;-81
2021/05/12 00:47:48;;;;;;;21.30;18.83;;;;;;;;;;2067144;28;20037;-81
2021/05/12 00:48:50;;;;;;;21.35;18.50;;;;;;;;;;2065821;28;20116;-81
2021/05/12 00:49:51;;;;;;;21.20;18.95;;;;;;;;;;2068287;28;20052;-81
2021/05/12 00:50:52;;;;;;;19.88;17.75;;;;;;;;;;2069064;28;20045;-81
2021/05/12 00:51:53;;;;;;;22.27;19.73;;;;;;;;;;2055763;28;20169;-81
2021/05/12 00:52:54;;;;;;;20.80;18.45;;;;;;;;;;2067407;28;20080;-81
2021/05/12 00:53:56;;;;;;;18.75;16.75;;;;;;;;;;2069514;28;20067;-81
2021/05/12 00:54:57;;;;;;;22.30;18.73;;;;;;;;;;2058329;28;20483;-81
2021/05/12 00:55:58;;;;;;;21.77;18.02;;;;;;;;;;2065948;28;20041;-80
2021/05/12 00:56:59;;;;;;;20.65;18.48;;;;;;;;;;2062955;28;20061;-81
2021/05/12 00:58:01;;;;;;;20.08;17.92;;;;;;;;;;2059855;28;20615;-81
2021/05/12 00:59:02;;;;;;;21.73;19.42;;;;;;;;;;2051163;28;20132;-81
2021/05/12 01:00:05;;;;;;;22.98;19.55;;;;;;;;;;2060302;28;20046;-81
2021/05/12 01:01:06;;;;;;;21.67;18.98;;;;;;;;;;2068184;28;20116;-81
2021/05/12 01:02:07;;;;;;;22.17;19.88;;;;;;;;;;2071102;28;20049;-81
2021/05/12 01:03:09;;;;;;;22.75;20.33;;;;;;;;;;2070305;28;20105;-82
2021/05/12 01:04:11;;;;;;;22.83;20.45;;;;;;;;;;2068484;28;20071;-81
2021/05/12 01:05:19;;;;;;;22.05;19.67;;;;;;;;;;2067337;28;20042;-81
2021/05/12 01:06:22;;;;;;;22.15;19.60;;;;;;;;;;2068718;28;20233;-82
2021/05/12 01:07:23;;;;;;;22.83;20.35;;;;;;;;;;2074191;28;20808;-81
2021/05/12 01:08:24;;;;;;;23.50;20.80;;;;;;;;;;2067139;28;20168;-81
2021/05/12 01:09:25;;;;;;;26.48;21.15;;;;;;;;;;2068072;28;20053;-81
2021/05/12 01:10:26;;;;;;;24.42;21.77;;;;;;;;;;2069416;28;20029;-81
2021/05/12 01:11:28;;;;;;;26.15;21.70;;;;;;;;;;2069087;28;20135;-81
2021/05/12 01:12:29;;;;;;;23.63;21.10;;;;;;;;;;2064618;28;20037;-81
2021/05/12 01:13:30;;;;;;;25.52;22.83;;;;;;;;;;2067138;28;20034;-82
2021/05/12 01:14:32;;;;;;;23.58;21.02;;;;;;;;;;2063905;28;20072;-81
2021/05/12 01:15:33;;;;;;;33.80;25.50;;;;;;;;;;2068741;28;20057;-82
2021/05/12 01:16:34;;;;;;;32.50;27.35;;;;;;;;;;2074081;28;20057;-82
2021/05/12 01:17:35;;;;;;;29.88;24.75;;;;;;;;;;2074413;28;20154;-82
2021/05/12 01:18:36;;;;;;;28.20;23.63;;;;;;;;;;2069438;28;20036;-82
2021/05/12 01:19:38;;;;;;;29.02;25.23;;;;;;;;;;2067689;28;20654;-82
2021/05/12 01:20:59;;;;;;;29.30;23.75;;;;;;;;;;2069179;28;20115;-82
2021/05/12 01:22:00;;;;;;;29.05;24.42;;;;;;;;;;2068404;28;20042;-81
2021/05/12 01:23:01;;;;;;;25.30;21.48;;;;;;;;;;2072277;28;20045;-81
2021/05/12 01:24:03;;;;;;;24.33;19.20;;;;;;;;;;2067623;28;20041;-82
2021/05/12 01:25:05;;;;;;;27.35;22.33;;;;;;;;;;2070672;28;20601;-82
2021/05/12 01:26:07;;;;;;;31.83;26.02;;;;;;;;;;2074737;28;20053;-81
2021/05/12 01:27:09;;;;;;;28.67;24.27;;;;;;;;;;2083433;28;20041;-81
2021/05/12 01:28:10;;;;;;;30.77;26.27;;;;;;;;;;2072839;28;20041;-81
2021/05/12 01:29:11;;;;;;;30.60;24.98;;;;;;;;;;2069889;28;20183;-81
2021/05/12 01:30:12;;;;;;;28.67;23.85;;;;;;;;;;2069744;28;20045;-81
2021/05/12 01:31:13;;;;;;;;;;;;;;;;;;2074083;28;20085;-81
2021/05/12 01:32:14;;;;;;;29.08;22.92;;;;;;;;;;2077193;28;20346;-81
2021/05/12 01:33:15;;;;;;;31.45;26.38;;;;;;;;;;2077211;28;20038;-81
2021/05/12 01:34:18;;;;;;;31.42;24.63;;;;;;;;;;2075543;28;20112;-81
2021/05/12 01:35:19;;;;;;;32.65;25.38;;;;;;;;;;2074092;28;20049;-81
2021/05/12 01:36:20;;;;;;;29.88;22.67;;;;;;;;;;2071016;28;20042;-82
2021/05/12 01:37:21;;;;;;;31.20;24.63;;;;;;;;;;2068441;28;20344;-82
2021/05/12 01:38:23;;;;;;;30.05;24.15;;;;;;;;;;2067542;28;20050;-81
2021/05/12 01:39:24;;;;;;;35.33;27.50;;;;;;;;;;2053784;28;20045;-82
2021/05/12 01:40:26;;;;;;;30.23;23.67;;;;;;;;;;2063651;28;20490;-81
2021/05/12 01:41:27;;;;;;;27.55;24.05;;;;;;;;;;2067326;28;20037;-82
2021/05/12 01:42:29;;;;;;;29.75;24.58;;;;;;;;;;2070885;28;20053;-81
2021/05/12 01:43:31;;;;;;;31.38;25.58;;;;;;;;;;2074615;28;20609;-81
2021/05/12 01:44:32;;;;;;;30.08;22.67;;;;;;;;;;2064382;28;20072;-82
2021/05/12 01:45:33;;;;;;;30.63;23.27;;;;;;;;;;2063091;28;20206;-80
2021/05/12 01:46:34;;;;;;;30.35;23.25;;;;;;;;;;2072679;28;20029;-82
2021/05/12 01:47:35;;;;;;;30.58;25.00;;;;;;;;;;2083317;28;20766;-81
2021/05/12 01:48:36;;;;;;;;;;;;;;;;;;2070323;28;20022;-81
2021/05/12 01:49:37;;;;;;;32.08;23.38;;;;;;;;;;2069616;28;20008;-81
2021/05/12 01:50:39;;;;;;;36.67;26.52;;;;;;;;;;2073570;28;20526;-81
2021/05/12 01:51:41;;;;;;;42.28;28.52;;;;;;;;;;2075129;28;20443;-80
2021/05/12 01:52:44;;;;;;;42.58;26.90;;;;;;;;;;2060630;28;20039;-81
2021/05/12 01:53:47;;;;;;;34.63;25.55;;;;;;;;;;2073544;28;20097;-81
2021/05/12 01:54:48;;;;;;;24.70;19.23;;;;;;;;;;2069495;28;20037;-82
2021/05/12 01:55:50;;;;;;;16.55;14.77;;;;;;;;;;2055863;28;20047;-82
2021/05/12 01:56:51;;;;;;;26.67;19.00;;;;;;;;;;2064690;28;20514;-80
2021/05/12 01:58:01;;;;;;;24.20;17.52;;;;;;;;;;2033820;28;20149;-82
2021/05/12 01:59:03;;;;;;;23.33;17.00;;;;;;;;;;2058265;28;20635;-81
2021/05/12 02:00:16;;;;;;;15.10;12.07;;;;;;;;;;2063541;28;20034;-83
2021/05/12 02:01:17;;;;;;;14.52;12.35;;;;;;;;;;2069169;28;20557;-83
2021/05/12 02:02:18;;;;;;;13.20;10.55;;;;;;;;;;2070039;28;20041;-84
2021/05/12 02:03:20;;;;;;;14.40;10.88;;;;;;;;;;2058120;28;20037;-83
2021/05/12 02:04:21;;;;;;;;;;;;;;;;;;2065806;28;20454;-83
2021/05/12 02:05:23;;;;;;;16.88;11.73;;;;;;;;;;2064740;28;20105;-83
2021/05/12 02:06:24;;;;;;;15.05;11.52;;;;;;;;;;2063172;28;20042;-83
2021/05/12 02:07:25;;;;;;;13.32;11.07;;;;;;;;;;2058771;28;20034;-82
2021/05/12 02:08:27;;;;;;;13.68;10.85;;;;;;;;;;2065944;28;20442;-82
2021/05/12 02:09:28;;;;;;;13.55;10.32;;;;;;;;;;2077993;28;20049;-83
2021/05/12 02:10:30;;;;;;;12.15;10.20;;;;;;;;;;2076696;28;20404;-83
2021/05/12 02:11:31;;;;;;;10.98;9.88;;;;;;;;;;2075777;28;20041;-82
2021/05/12 02:12:32;;;;;;;12.15;9.15;;;;;;;;;;2067617;28;20033;-83
2021/05/12 02:13:34;;;;;;;11.75;9.27;;;;;;;;;;2072762;28;20037;-83
2021/05/12 02:14:35;;;;;;;13.48;10.00;;;;;;;;;;2076190;28;20061;-83
2021/05/12 02:15:36;;;;;;;13.10;11.13;;;;;;;;;;2076110;28;20128;-83
2021/05/12 02:16:37;;;;;;;12.65;10.57;;;;;;;;;;2067881;28;20455;-83
2021/05/12 02:17:39;;;;;;;10.27;7.15;;;;;;;;;;2066363;28;20030;-83
2021/05/12 02:18:40;;;;;;;15.52;10.23;;;;;;;;;;2069284;28;20116;-82
2021/05/12 02:19:41;;;;;;;11.48;9.10;;;;;;;;;;2061183;28;20046;-82
2021/05/12 02:20:42;;;;;;;10.55;8.35;;;;;;;;;;2060901;28;20072;-83
2021/05/12 02:21:43;;;;;;;11.10;9.32;;;;;;;;;;2060374;28;20577;-82
2021/05/12 02:22:44;;;;;;;10.93;9.30;;;;;;;;;;2067572;28;20053;-83
2021/05/12 02:23:46;;;;;;;11.27;9.30;;;;;;;;;;2068639;28;20076;-82
2021/05/12 02:24:47;;;;;;;13.15;9.65;;;;;;;;;;2063192;28;20235;-83
2021/05/12 02:25:48;;;;;;;10.70;9.18;;;;;;;;;;2070177;28;20164;-82
2021/05/12 02:26:49;;;;;;;8.65;7.35;;;;;;;;;;2067049;28;20045;-82
2021/05/12 02:27:50;;;;;;;10.60;8.35;;;;;;;;;;2067223;28;20979;-83
2021/05/12 02:28:52;;;;;;;9.40;7.65;;;;;;;;;;2070059;28;20040;-81
2021/05/12 02:29:53;;;;;;;8.20;7.18;;;;;;;;;;2069876;28;20180;-82
2021/05/12 02:30:54;;;;;;;9.25;7.25;;;;;;;;;;2066417;28;20561;-82
2021/05/12 02:31:56;;;;;;;9.45;7.55;;;;;;;;;;2062347;28;20761;-82
2021/05/12 02:32:57;;;;;;;9.35;7.22;;;;;;;;;;2067716;28;20144;-82
2021/05/12 02:33:58;;;;;;;7.45;6.35;;;;;;;;;;2066516;28;20030;-83
2021/05/12 02:35:00;;;;;;;6.95;6.13;;;;;;;;;;2068682;28;20034;-82
2021/05/12 02:36:01;;;;;;;8.48;6.55;;;;;;;;;;2069668;28;20033;-82
2021/05/12 02:37:02;;;;;;;6.82;5.40;;;;;;;;;;2071367;28;20192;-82
2021/05/12 02:38:04;;;;;;;7.00;6.30;;;;;;;;;;2073269;28;20045;-83
2021/05/12 02:39:05;;;;;;;10.98;7.38;;;;;;;;;;2074685;28;20076;-82
2021/05/12 02:40:06;;;;;;;;;;;;;;;;;;2074881;28;20046;-82
2021/05/12 02:41:08;;;;;;;7.63;6.72;;;;;;;;;;2072313;28;19947;-82
2021/05/12 02:42:09;;;;;;;8.13;6.95;;;;;;;;;;2067113;28;20129;-82
2021/05/12 02:43:10;;;;;;;8.30;7.45;;;;;;;;;;2074201;28;20052;-82
2021/05/12 02:44:11;;;;;;;8.55;7.55;;;;;;;;;;2075182;28;20041;-82
2021/05/12 02:45:13;;;;;;;10.68;7.97;;;;;;;;;;2076008;28;21134;-82
2021/05/12 02:46:14;;;;;;;8.95;7.50;;;;;;;;;;2073026;28;20037;-84
2021/05/12 02:47:15;;;;;;;8.52;7.32;;;;;;;;;;2070141;28;20539;-82
2021/05/12 02:48:16;;;;;;;10.35;8.20;;;;;;;;;;2069619;28;20044;-82
2021/05/12 02:49:18;;;;;;;9.48;7.93;;;;;;;;;;2070507;28;20301;-83
2021/05/12 02:50:19;;;;;;;11.35;8.43;;;;;;;;;;2062012;28;20629;-82
2021/05/12 02:51:20;;;;;;;9.30;7.50;;;;;;;;;;2056830;28;20053;-83
2021/05/12 02:52:21;;;;;;;;;;;;;;;;;;2069893;28;20283;-84
2021/05/12 02:53:22;;;;;;;8.95;7.40;;;;;;;;;;2066078;28;20110;-84
2021/05/12 02:54:23;;;;;;;7.20;6.32;;;;;;;;;;2067486;28;20053;-82
2021/05/12 02:55:25;;;;;;;6.78;6.07;;;;;;;;;;2068608;28;20203;-83
2021/05/12 02:56:26;;;;;;;8.07;7.22;;;;;;;;;;2073153;28;20048;-82
2021/05/12 02:57:27;;;;;;;7.20;6.18;;;;;;;;;;2071599;28;20048;-83
2021/05/12 02:58:28;;;;;;;7.22;6.38;;;;;;;;;;2069997;28;20100;-82
2021/05/12 02:59:30;;;;;;;6.90;6.03;;;;;;;;;;2067510;28;20144;-83
2021/05/12 03:00:31;;;;;;;6.47;5.88;;;;;;;;;;2071269;28;20120;-84
2021/05/12 03:01:32;;;;;;;8.00;7.15;;;;;;;;;;2074496;28;20041;-82
2021/05/12 03:02:33;;;;;;;8.18;6.30;;;;;;;;;;2074328;28;20041;-82
2021/05/12 03:03:36;;;;;;;6.80;6.07;;;;;;;;;;2066498;28;20094;-83
2021/05/12 03:04:37;;;;;;;7.82;6.03;;;;;;;;;;2068712;28;20140;-83
2021/05/12 03:05:39;;;;;;;6.25;5.57;;;;;;;;;;2068502;28;20380;-83
2021/05/12 03:06:40;;;;;;;6.72;5.50;;;;;;;;;;2067420;28;20049;-83
2021/05/12 03:07:42;;;;;;;5.65;4.88;;;;;;;;;;2065282;28;20060;-82
2021/05/12 03:08:43;;;;;;;6.10;5.50;;;;;;;;;;2057454;28;20045;-83
2021/05/12 03:09:44;;;;;;;6.28;5.68;;;;;;;;;;2061638;28;20151;-83
2021/05/12 03:10:45;;;;;;;5.63;4.95;;;;;;;;;;2062845;28;20289;-84
2021/05/12 03:11:46;;;;;;;5.07;4.38;;;;;;;;;;2074418;28;20040;-83
2021/05/12 03:12:47;;;;;;;5.25;4.60;;;;;;;;;;2072608;28;20029;-83
2021/05/12 03:13:48;;;;;;;5.10;4.20;;;;;;;;;;2070252;28;20033;-83
2021/05/12 03:14:49;;;;;;;4.32;3.92;;;;;;;;;;2067681;28;20545;-83
2021/05/12 03:15:51;;;;;;;5.07;3.95;;;;;;;;;;2066386;28;20227;-83
2021/05/12 03:16:52;;;;;;;4.90;4.13;;;;;;;;;;2067808;28;20050;-83
2021/05/12 03:17:53;;;;;;;5.10;3.75;;;;;;;;;;2067575;28;20149;-83
2021/05/12 03:18:55;;;;;;;5.25;4.25;;;;;;;;;;2073396;28;20486;-82
2021/05/12 03:19:56;;;;;;;6.45;3.90;;;;;;;;;;2072122;28;20048;-84
2021/05/12 03:20:57;;;;;;;3.35;3.05;;;;;;;;;;2074375;28;20058;-82
2021/05/12 03:21:58;;;;;;;4.65;2.75;;;;;;;;;;2070405;28;20033;-83
2021/05/12 03:22:59;;;;;;;;;;;;;;;;;;2071696;28;20081;-82
2021/05/12 03:24:01;;;;;;;2.30;2.00;;;;;;;;;;2070438;28;19920;-82
2021/05/12 03:25:03;;;;;;;3.30;3.00;;;;;;;;;;2066270;28;20048;-81
2021/05/12 03:26:04;;;;;;;4.70;2.80;;;;;;;;;;2073826;28;20045;-82
2021/05/12 03:27:06;;;;;;;2.10;1.90;;;;;;;;;;2061427;28;20243;-82
2021/05/12 03:28:07;;;;;;;;;;;;;;;;;;2054009;28;20048;-82
2021/05/12 03:29:08;;;;;;;2.88;1.48;;;;;;;;;;2066494;28;20176;-83
2021/05/12 03:30:11;;;;;;;1.90;1.80;;;;;;;;;;2068663;28;20683;-82
2021/05/12 03:31:13;;;;;;;1.83;1.55;;;;;;;;;;2071302;28;20049;-83
2021/05/12 03:32:14;;;;;;;2.35;1.85;;;;;;;;;;2069918;28;20600;-82
2021/05/12 03:33:15;;;;;;;3.03;1.67;;;;;;;;;;2068195;28;20052;-82
2021/05/12 03:34:16;;;;;;;1.73;1.40;;;;;;;;;;2075106;28;20049;-84
2021/05/12 03:35:18;;;;;;;1.50;1.30;;;;;;;;;;2072910;28;20124;-84
2021/05/12 03:36:19;;;;;;;1.58;1.38;;;;;;;;;;2076301;28;20038;-84
2021/05/12 03:37:21;;;;;;;1.23;1.13;;;;;;;;;;2074457;28;20033;-83
2021/05/12 03:38:22;;;;;;;1.20;1.00;;;;;;;;;;2062348;28;20653;-84
2021/05/12 03:39:23;;;;;;;1.20;1.00;;;;;;;;;;2065300;28;20398;-82
2021/05/12 03:40:25;;;;;;;2.17;0.80;;;;;;;;;;2062006;28;20061;-83
2021/05/12 03:41:26;;;;;;;1.13;0.80;;;;;;;;;;2060678;28;20048;-83
2021/05/12 03:42:27;;;;;;;;;;;;;;;;;;2066305;28;20037;-83
2021/05/12 03:43:28;;;;;;;1.48;0.90;;;;;;;;;;2070198;28;19901;-83
2021/05/12 03:44:29;;;;;;;1.13;1.00;;;;;;;;;;2058123;28;20053;-83
2021/05/12 03:45:31;;;;;;;1.20;1.00;;;;;;;;;;2065868;28;20042;-83
2021/05/12 03:46:32;;;;;;;2.35;0.90;;;;;;;;;;2071128;28;20125;-84
2021/05/12 03:47:33;;;;;;;1.85;1.10;;;;;;;;;;2062568;28;20042;-82
2021/05/12 03:48:34;;;;;;;1.23;0.88;;;;;;;;;;2062358;28;20074;-83
2021/05/12 03:49:35;;;;;;;2.95;0.70;;;;;;;;;;2073089;28;20034;-85
2021/05/12 03:50:37;;;;;;;1.65;0.80;;;;;;;;;;2080376;28;20041;-83
2021/05/12 03:51:38;;;;;;;1.35;0.63;;;;;;;;;;2079024;28;20065;-82
2021/05/12 03:52:40;;;;;;;0.60;0.60;;;;;;;;;;2064890;28;20244;-82
2021/05/12 03:53:41;;;;;;;0.95;0.70;;;;;;;;;;2076798;28;20240;-82
2021/05/12 03:54:42;;;;;;;0.40;0.40;;;;;;;;;;2081861;28;20045;-82
2021/05/12 03:55:43;;;;;;;3.90;0.80;;;;;;;;;;2071005;28;20041;-82
2021/05/12 03:56:44;;;;;;;1.00;0.57;;;;;;;;;;2068730;28;20085;-83
2021/05/12 03:57:46;;;;;;;1.55;0.70;;;;;;;;;;2074353;28;20075;-84
2021/05/12 03:58:47;;;;;;;0.55;0.55;;;;;;;;;;2072889;28;20049;-83
2021/05/12 03:59:48;;;;;;;0.50;0.50;;;;;;;;;;2070043;28;20048;-85
2021/05/12 04:00:50;;;;;;;0.65;0.60;;;;;;;;;;2066201;28;20072;-84
2021/05/12 04:01:51;;;;;;;1.20;0.52;;;;;;;;;;2069389;28;20097;-83
2021/05/12 04:02:52;;;;;;;0.75;0.47;;;;;;;;;;2068597;28;20515;-83
2021/05/12 04:03:53;;;;;;;0.40;0.40;;;;;;;;;;2067071;28;20025;-84
2021/05/12 04:04:54;;;;;;;0.90;0.50;;;;;;;;;;2064358;28;20107;-86
2021/05/12 04:05:56;;;;;;;1.10;0.50;;;;;;;;;;2073158;28;20565;-83
2021/05/12 04:06:57;;;;;;;0.50;0.50;;;;;;;;;;2057311;28;20041;-82
2021/05/12 04:07:58;;;;;;;0.52;0.40;;;;;;;;;;2058785;28;20042;-84
2021/05/12 04:09:00;;;;;;;0.50;0.50;;;;;;;;;;2060726;28;20034;-82
2021/05/12 04:10:01;;;;;;;0.65;0.40;;;;;;;;;;2068701;28;21474;-83
2021/05/12 04:11:02;;;;;;;;;;;;;;;;;;2076163;28;20514;-83
2021/05/12 04:12:04;;;;;;;0.52;0.50;;;;;;;;;;2067239;28;19976;-83
2021/05/12 04:13:05;;;;;;;;;;;;;;;;;;2062925;28;20038;-82
2021/05/12 04:14:06;;;;;;;0.50;0.30;;;;;;;;;;2072704;28;19919;-83
2021/05/12 04:15:08;;;;;;;0.40;0.40;;;;;;;;;;2073950;28;20037;-83
2021/05/12 04:16:09;;;;;;;0.63;0.47;;;;;;;;;;2064743;28;20195;-82
2021/05/12 04:17:10;;;;;;;0.40;0.40;;;;;;;;;;2064906;28;20041;-84
2021/05/12 04:18:11;;;;;;;0.40;0.40;;;;;;;;;;2056031;28;20053;-82
2021/05/12 04:19:12;;;;;;;0.50;0.50;;;;;;;;;;2059898;28;20462;-82
2021/05/12 04:20:16;;;;;;;0.75;0.60;;;;;;;;;;2064868;28;20114;-83
2021/05/12 04:21:17;;;;;;;1.33;0.80;;;;;;;;;;2072184;28;20133;-82
2021/05/12 04:22:18;;;;;;;1.38;0.90;;;;;;;;;;2070848;28;20339;-84
2021/05/12 04:23:19;;;;;;;2.45;1.02;;;;;;;;;;2062261;28;20390;-84
2021/05/12 04:24:20;;;;;;;1.08;0.70;;;;;;;;;;2061740;28;20096;-83
2021/05/12 04:25:23;;;;;;;1.02;0.80;;;;;;;;;;2057538;28;20713;-82
2021/05/12 04:26:24;;;;;;;1.27;0.90;;;;;;;;;;2068806;28;20065;-82
2021/05/12 04:27:25;;;;;;;0.80;0.60;;;;;;;;;;2065580;28;20582;-83
2021/05/12 04:28:26;;;;;;;0.55;0.55;;;;;;;;;;2062132;28;20034;-84
2021/05/12 04:29:27;;;;;;;0.43;0.40;;;;;;;;;;2067308;28;20159;-83
2021/05/12 04:30:31;;;;;;;0.50;0.40;;;;;;;;;;2068514;28;20323;-84
2021/05/12 04:31:32;;;;;;;0.50;0.50;;;;;;;;;;2065402;28;20153;-82
2021/05/12 04:32:34;;;;;;;0.35;0.35;;;;;;;;;;2074385;28;20049;-83
2021/05/12 04:33:35;;;;;;;0.28;0.20;;;;;;;;;;2072221;28;20033;-84
2021/05/12 04:34:36;;;;;;;0.30;0.30;;;;;;;;;;2070582;28;20199;-83
2021/05/12 04:35:37;;;;;;;1.13;1.02;;;;;;;;;;2067967;28;20038;-83
2021/05/12 04:36:39;;;;;;;0.30;0.30;;;;;;;;;;2069769;28;20033;-82
2021/05/12 04:37:41;;;;;;;0.35;0.30;;;;;;;;;;2070955;28;20053;-84
2021/05/12 04:38:42;;;;;;;0.17;0.17;;;;;;;;;;2070846;28;20272;-83
2021/05/12 04:39:43;;;;;;;0.28;0.20;;;;;;;;;;2070365;28;20405;-83
2021/05/12 04:40:44;;;;;;;;;;;;;;;;;;2071018;28;20139;-84
2021/05/12 04:41:45;;;;;;;0.20;0.20;;;;;;;;;;2063645;28;19918;-82
2021/05/12 04:42:46;;;;;;;0.55;0.17;;;;;;;;;;2065920;28;20117;-84
2021/05/12 04:43:48;;;;;;;1.50;0.25;;;;;;;;;;2067703;28;20482;-83
2021/05/12 04:44:49;;;;;;;0.68;0.30;;;;;;;;;;2068626;28;20045;-84
2021/05/12 04:45:50;;;;;;;1.27;0.30;;;;;;;;;;2068858;28;21435;-82
2021/05/12 04:46:51;;;;;;;0.65;0.20;;;;;;;;;;2069509;28;20029;-84
2021/05/12 04:47:55;;;;;;;0.30;0.30;;;;;;;;;;2064800;28;22695;-83
2021/05/12 04:48:56;;;;;;;0.30;0.30;;;;;;;;;;2068859;28;20113;-84
2021/05/12 04:49:58;;;;;;;0.32;0.32;;;;;;;;;;2068449;28;20065;-83
2021/05/12 04:50:59;;;;;;;0.20;0.20;;;;;;;;;;2068621;28;21271;-82
2021/05/12 04:52:00;;;;;;;0.98;0.20;;;;;;;;;;2069628;28;20061;-82
2021/05/12 04:53:01;;;;;;;1.55;0.28;;;;;;;;;;2065571;28;20068;-84
2021/05/12 04:54:03;;;;;;;0.47;0.20;;;;;;;;;;2074614;28;20049;-83
2021/05/12 04:55:05;;;;;;;0.10;0.10;;;;;;;;;;2071513;28;20394;-83
2021/05/12 04:56:07;;;;;;;0.10;0.10;;;;;;;;;;2073005;28;20045;-83
2021/05/12 04:57:08;;;;;;;0.45;0.25;;;;;;;;;;2072909;28;20580;-82
2021/05/12 04:58:09;;;;;;;0.10;0.10;;;;;;;;;;2074672;28;20041;-81
2021/05/12 04:59:10;;;;;;;0.28;0.20;;;;;;;;;;2069213;28;20446;-82
2021/05/12 05:00:13;;;;;;;0.22;0.22;;;;;;;;;;2069836;28;20076;-82
2021/05/12 05:01:14;;;;;;;0.50;0.40;;;;;;;;;;2069844;28;20041;-82
2021/05/12 05:02:15;;;;;;;0.20;0.20;;;;;;;;;;2067547;28;20049;-82
2021/05/12 05:03:16;;;;;;;;;;;;;;;;;;2067033;28;20034;-82
2021/05/12 05:04:18;;;;;;;0.20;0.20;;;;;;;;;;2068021;28;19909;-83
2021/05/12 05:05:20;;;;;;;;;;;;;;;;;;2073242;28;20257;-82
2021/05/12 05:06:21;;;;;;;0.30;0.20;;;;;;;;;;2073922;28;20394;-82
2021/05/12 05:07:23;;;;;;;1.48;0.40;;;;;;;;;;2073692;28;20145;-83
2021/05/12 05:08:33;;;;;;;0.30;0.30;;;;;;;;;;2073310;28;20227;-82
2021/05/12 05:09:34;;;;;;;0.20;0.20;;;;;;;;;;2069514;28;20025;-82
2021/05/12 05:10:35;;;;;;;0.20;0.20;;;;;;;;;;2061901;28;20315;-82
2021/05/12 05:11:36;;;;;;;0.40;0.40;;;;;;;;;;2058583;28;20264;-81
2021/05/12 05:12:37;;;;;;;0.30;0.30;;;;;;;;;;2065152;28;20842;-82
2021/05/12 05:13:38;;;;;;;0.40;0.40;;;;;;;;;;2066359;28;20111;-83
2021/05/12 05:14:39;;;;;;;0.68;0.28;;;;;;;;;;2075088;28;20072;-83
2021/05/12 05:15:40;;;;;;;1.35;0.30;;;;;;;;;;2070539;28;20225;-82
2021/05/12 05:16:42;;;;;;;0.63;0.63;;;;;;;;;;2058632;28;20049;-81
2021/05/12 05:17:43;;;;;;;0.50;0.50;;;;;;;;;;2058768;28;20056;-82
2021/05/12 05:18:45;;;;;;;0.77;0.60;;;;;;;;;;2065259;28;20041;-81
2021/05/12 05:19:47;;;;;;;0.50;0.50;;;;;;;;;;2069945;28;20029;-82
2021/05/12 05:20:48;;;;;;;1.10;0.68;;;;;;;;;;2061348;28;20034;-82
2021/05/12 05:21:49;;;;;;;0.32;0.32;;;;;;;;;;2066449;28;20034;-82
2021/05/12 05:22:50;;;;;;;0.25;0.25;;;;;;;;;;2068469;28;20041;-83
2021/05/12 05:23:51;;;;;;;0.28;0.28;;;;;;;;;;2067960;28;20063;-81
2021/05/12 05:24:53;;;;;;;0.28;0.20;;;;;;;;;;2066827;28;20065;-82
2021/05/12 05:25:54;;;;;;;;;;;;;;;;;;2066289;28;20593;-81
2021/05/12 05:26:55;;;;;;;0.30;0.30;;;;;;;;;;2067931;28;19920;-83
2021/05/12 05:27:56;;;;;;;0.40;0.38;;;;;;;;;;2062125;28;20034;-83
2021/05/12 05:28:57;;;;;;;0.40;0.40;;;;;;;;;;2058854;28;20077;-84
2021/05/12 05:29:58;;;;;;;;;;;;;;;;;;2068195;28;20042;-84
2021/05/12 05:30:59;;;;;;;0.20;0.20;;;;;;;;;;2066803;28;20718;-84
2021/05/12 05:32:00;;;;;;;0.55;0.30;;;;;;;;;;2059949;28;20311;-84
2021/05/12 05:33:02;;;;;;;0.30;0.30;;;;;;;;;;2054177;28;20506;-86
2021/05/12 05:34:03;;;;;;;;;;;;;;;;;;2061457;28;20435;-84
2021/05/12 05:35:05;;;;;;;0.47;0.38;;;;;;;;;;2065238;28;19943;-84
2021/05/12 05:36:07;;;;;;;0.35;0.30;;;;;;;;;;2074868;28;20044;-85
2021/05/12 05:37:08;;;;;;;0.40;0.40;;;;;;;;;;2076328;28;20037;-85
2021/05/12 05:38:09;;;;;;;0.57;0.57;;;;;;;;;;2065894;28;20042;-84
2021/05/12 05:39:10;;;;;;;0.40;0.40;;;;;;;;;;2070758;28;20045;-84
2021/05/12 05:40:11;;;;;;;0.40;0.40;;;;;;;;;;2058295;28;20045;-83
2021/05/12 05:41:12;;;;;;;;;;;;;;;;;;2068038;28;20210;-83
2021/05/12 05:42:13;;;;;;;0.80;0.32;;;;;;;;;;2066396;28;19992;-83
2021/05/12 05:43:15;;;;;;;1.63;0.35;;;;;;;;;;2069511;28;20243;-83
2021/05/12 05:44:16;;;;;;;0.28;0.28;;;;;;;;;;2066124;28;20206;-82
2021/05/12 05:45:17;;;;;;;0.40;0.30;;;;;;;;;;2065056;28;20041;-82
2021/05/12 05:46:18;;;;;;;0.45;0.40;;;;;;;;;;2063939;28;20060;-83
2021/05/12 05:47:19;;;;;;;0.30;0.30;;;;;;;;;;2065613;28;20061;-82
2021/05/12 05:48:21;;;;;;;0.57;0.30;;;;;;;;;;2068867;28;20039;-82
2021/05/12 05:49:22;;;;;;;0.30;0.30;;;;;;;;;;2070325;28;20045;-83
2021/05/12 05:50:23;;;;;;;;;;;;;;;;;;2071554;28;20042;-83
2021/05/12 05:51:24;;;;;;;0.30;0.30;;;;;;;;;;2081678;28;20087;-83
2021/05/12 05:52:25;;;;;;;0.30;0.30;;;;;;;;;;2071559;28;20124;-83
2021/05/12 05:53:26;;;;;;;0.50;0.50;;;;;;;;;;2064567;28;20038;-83
2021/05/12 05:54:28;;;;;;;0.30;0.30;;;;;;;;;;2065123;28;20034;-83
2021/05/12 05:55:29;;;;;;;0.32;0.28;;;;;;;;;;2064244;28;20052;-83
2021/05/12 05:56:30;;;;;;;0.35;0.30;;;;;;;;;;2062761;28;20178;-83
2021/05/12 05:57:31;;;;;;;0.30;0.30;;;;;;;;;;2070046;28;20143;-82
2021/05/12 05:58:33;;;;;;;0.40;0.40;;;;;;;;;;2064915;28;20133;-83
2021/05/12 05:59:34;;;;;;;0.35;0.35;;;;;;;;;;2057707;28;20243;-83
2021/05/12 06:00:35;;;;;;;0.40;0.40;;;;;;;;;;2071510;28;20220;-83
2021/05/12 06:01:36;;;;;;;0.43;0.40;;;;;;;;;;2067038;28;20037;-82
2021/05/12 06:02:37;;;;;;;0.60;0.50;;;;;;;;;;2074714;28;20044;-83
2021/05/12 06:03:38;;;;;;;;;;;;;;;;;;2077774;28;20140;-83
2021/05/12 06:04:39;;;;;;;0.73;0.40;;;;;;;;;;2074527;28;20204;-82
2021/05/12 06:05:46;;;;;;;0.32;0.32;;;;;;;;;;2067039;28;20038;-83
2021/05/12 06:06:47;;;;;;;0.30;0.30;;;;;;;;;;2060739;28;20222;-82
2021/05/12 06:07:51;;;;;;;0.43;0.43;;;;;;;;;;2066542;28;20061;-83
2021/05/12 06:08:53;;;;;;;0.40;0.40;;;;;;;;;;2068031;28;20098;-83